Time;durP1;ratioP1;P1;durP2;ratioP2;P2;SDS_P1;SDS_P2;PMS_P1;PMS_P2;Temp;Humidity;BMP_temperature;BMP_pressure;BME280_temperature;BME280_humidity;BME280_pressure;Samples;Min_cycle;Max_cycle;Signal;HPM_P1;HPM_P2
2022/10/17 00:01:04;;;;;;;8.00;4.03;;;22.20;60.60;;;;;;5043075;28;20979;-53
2022/10/17 00:03:29;;;;;;;9.93;3.50;;;22.20;60.40;;;;;;5037184;28;20450;-52
2022/10/17 00:05:55;;;;;;;7.80;3.40;;;22.20;60.90;;;;;;5041835;28;20447;-54
2022/10/17 00:08:20;;;;;;;5.60;3.83;;;22.30;59.70;;;;;;5040478;28;20204;-54
2022/10/17 00:10:56;;;;;;;3.47;2.93;;;22.30;59.70;;;;;;5048019;28;20666;-53
2022/10/17 00:13:21;;;;;;;7.87;3.13;;;22.20;59.50;;;;;;5047399;28;20580;-55
2022/10/17 00:15:47;;;;;;;9.60;3.43;;;22.00;59.60;;;;;;5049173;28;20448;-53
2022/10/17 00:18:12;;;;;;;8.20;3.57;;;22.10;59.70;;;;;;5049350;28;20914;-54
2022/10/17 00:20:38;;;;;;;6.57;3.30;;;22.10;59.60;;;;;;5044023;28;20196;-54
2022/10/17 00:23:03;;;;;;;4.60;3.03;;;22.10;59.50;;;;;;5042352;28;20196;-54
2022/10/17 00:25:29;;;;;;;9.43;3.43;;;22.10;59.80;;;;;;5040454;28;20216;-55
2022/10/17 00:27:54;;;;;;;5.60;3.40;;;22.00;58.80;;;;;;5039634;28;20188;-56
2022/10/17 00:30:20;;;;;;;4.53;2.70;;;21.90;58.80;;;;;;5044487;28;21138;-55
2022/10/17 00:32:46;;;;;;;3.97;2.90;;;21.70;58.90;;;;;;5048858;28;20238;-54
2022/10/17 00:35:11;;;;;;;7.13;3.60;;;21.20;60.50;;;;;;5044172;28;20192;-55
2022/10/17 00:37:37;;;;;;;7.30;2.83;;;21.20;61.30;;;;;;5043092;28;20692;-54
2022/10/17 00:40:05;;;;;;;11.13;2.20;;;21.20;60.50;;;;;;5038963;28;20200;-55
2022/10/17 00:42:30;;;;;;;11.37;2.70;;;21.20;60.30;;;;;;5046161;28;20219;-54
2022/10/17 00:45:04;;;;;;;3.40;2.50;;;21.00;61.00;;;;;;5041341;28;20440;-54
2022/10/17 00:47:31;;;;;;;2.83;2.50;;;21.00;61.10;;;;;;5047841;28;20197;-54
2022/10/17 00:49:57;;;;;;;13.23;3.10;;;21.00;60.90;;;;;;5044267;28;20807;-54
2022/10/17 00:52:25;;;;;;;2.37;2.17;;;21.00;60.90;;;;;;5043048;28;20586;-53
2022/10/17 00:54:56;;;;;;;7.07;2.90;;;20.70;62.50;;;;;;5047294;28;21149;-54
2022/10/17 00:57:22;;;;;;;8.13;2.67;;;20.50;63.30;;;;;;5048163;28;20878;-53
2022/10/17 00:59:51;;;;;;;7.13;2.83;;;20.50;63.60;;;;;;5042849;28;20455;-51
2022/10/17 01:02:20;;;;;;;6.93;3.13;;;20.40;63.40;;;;;;5039514;28;20745;-54
2022/10/17 01:04:49;;;;;;;3.77;2.53;;;20.10;64.80;;;;;;5043114;28;20993;-54
2022/10/17 01:07:15;;;;;;;4.73;2.93;;;20.10;65.30;;;;;;5041587;28;20439;-51
2022/10/17 01:09:44;;;;;;;4.53;3.07;;;20.00;65.40;;;;;;5045052;28;20458;-54
2022/10/17 01:12:29;;;;;;;4.00;3.37;;;20.10;65.40;;;;;;5048292;28;20220;-52
2022/10/17 01:15:25;;;;;;;3.50;2.53;;;20.10;65.40;;;;;;5047381;28;20486;-51
2022/10/17 01:17:57;;;;;;;7.73;2.93;;;19.90;66.00;;;;;;5045442;28;20485;-51
2022/10/17 01:20:51;;;;;;;9.93;3.20;;;19.60;66.60;;;;;;5047983;28;20583;-54
2022/10/17 01:23:24;;;;;;;6.90;2.77;;;19.50;67.50;;;;;;5040366;28;20973;-54
2022/10/17 01:26:15;;;;;;;4.00;3.00;;;19.60;67.60;;;;;;5036390;28;20447;-54
2022/10/17 01:29:07;;;;;;;5.60;2.93;;;19.60;67.30;;;;;;5043824;28;20444;-53
2022/10/17 01:31:39;;;;;;;4.07;2.70;;;19.30;68.20;;;;;;5041280;28;20450;-53
2022/10/17 01:34:37;;;;;;;7.50;2.93;;;19.10;69.30;;;;;;5019736;28;20471;-54
2022/10/17 01:37:14;;;;;;;3.50;2.60;;;19.00;70.10;;;;;;5039005;28;20508;-54
2022/10/17 01:39:51;;;;;;;7.30;3.30;;;18.80;71.10;;;;;;5039993;28;20454;-53
2022/10/17 01:42:25;;;;;;;5.40;2.83;;;18.90;70.90;;;;;;5040028;28;20454;-55
2022/10/17 01:45:19;;;;;;;3.30;2.30;;;18.80;71.00;;;;;;5039804;28;21216;-55
2022/10/17 01:47:49;;;;;;;6.00;3.07;;;18.90;71.30;;;;;;5043148;28;20427;-51
2022/10/17 01:50:22;;;;;;;3.80;2.50;;;19.10;70.60;;;;;;5050144;28;20934;-54
2022/10/17 01:52:52;;;;;;;2.63;2.43;;;19.00;70.90;;;;;;5041033;28;20497;-53
2022/10/17 01:55:22;;;;;;;2.80;2.50;;;19.00;70.90;;;;;;5048234;28;22404;-53
2022/10/17 01:57:55;;;;;;;5.70;2.40;;;19.00;71.00;;;;;;5042518;28;20530;-51
2022/10/17 02:00:25;;;;;;;6.80;2.80;;;19.00;70.70;;;;;;5050975;28;20439;-54
2022/10/17 02:03:02;;;;;;;5.10;2.53;;;18.90;71.40;;;;;;5049707;28;20435;-54
2022/10/17 02:05:34;;;;;;;2.70;2.33;;;18.90;71.30;;;;;;5047858;28;20500;-53
2022/10/17 02:07:59;;;;;;;9.10;2.70;;;18.80;71.00;;;;;;5047885;28;20447;-52
2022/10/17 02:10:34;;;;;;;4.67;2.63;;;18.80;70.40;;;;;;5050778;28;20446;-54
2022/10/17 02:13:09;;;;;;;5.40;3.00;;;18.90;71.00;;;;;;5049535;28;20231;-53
2022/10/17 02:15:53;;;;;;;5.03;2.70;;;19.10;70.30;;;;;;5047788;28;20504;-52
2022/10/17 02:18:53;;;;;;;3.60;2.40;;;19.20;69.50;;;;;;5041020;28;20447;-54
2022/10/17 02:21:43;;;;;;;5.20;2.53;;;19.30;68.90;;;;;;5041194;28;20497;-55
2022/10/17 02:24:20;;;;;;;2.80;2.60;;;19.30;67.60;;;;;;5044645;28;20465;-53
2022/10/17 02:27:04;;;;;;;8.20;2.70;;;19.30;67.60;;;;;;5044296;28;20477;-54
2022/10/17 02:29:35;;;;;;;10.33;3.27;;;19.20;67.90;;;;;;5044848;28;20446;-53
2022/10/17 02:32:20;;;;;;;9.17;2.70;;;19.20;67.80;;;;;;5048037;28;20511;-53
2022/10/17 02:34:49;;;;;;;8.83;3.00;;;19.40;67.90;;;;;;5045013;28;20451;-54
2022/10/17 02:37:18;;;;;;;6.73;2.40;;;19.20;67.70;;;;;;5046627;28;20471;-54
2022/10/17 02:39:45;;;;;;;3.93;2.60;;;19.00;68.50;;;;;;5047962;28;20454;-52
2022/10/17 02:42:12;;;;;;;6.40;3.10;;;19.20;68.60;;;;;;5046402;28;20938;-54
2022/10/17 02:44:42;;;;;;;3.70;2.73;;;19.30;67.40;;;;;;5046703;28;20470;-54
2022/10/17 02:47:17;;;;;;;10.30;2.97;;;19.30;67.00;;;;;;5046223;28;20451;-52
2022/10/17 02:49:48;;;;;;;5.13;2.77;;;19.40;67.10;;;;;;5043670;28;20496;-54
2022/10/17 02:52:20;;;;;;;7.67;3.47;;;19.40;66.90;;;;;;5048270;28;20584;-55
2022/10/17 02:55:10;;;;;;;8.43;2.87;;;19.40;66.90;;;;;;5042868;28;20969;-54
2022/10/17 02:57:43;;;;;;;6.60;2.40;;;19.40;66.90;;;;;;5033731;28;20440;-54
2022/10/17 03:00:13;;;;;;;4.60;2.73;;;19.30;67.20;;;;;;5049236;28;20447;-55
2022/10/17 03:02:51;;;;;;;3.00;2.30;;;19.20;67.30;;;;;;5042480;28;20439;-54
2022/10/17 03:05:20;;;;;;;8.47;2.50;;;19.20;67.50;;;;;;5047328;28;22827;-53
2022/10/17 03:07:46;;;;;;;4.03;1.90;;;19.20;67.40;;;;;;5046354;28;20445;-53
2022/10/17 03:10:12;;;;;;;4.83;2.27;;;19.20;67.60;;;;;;5047486;28;20431;-54
2022/10/17 03:12:38;;;;;;;10.63;2.60;;;19.10;67.80;;;;;;5041097;28;20585;-55
2022/10/17 03:15:04;;;;;;;7.97;2.80;;;18.90;68.20;;;;;;5039500;28;20196;-55
2022/10/17 03:17:30;;;;;;;2.97;2.00;;;19.00;67.90;;;;;;5036259;28;20652;-52
2022/10/17 03:19:56;;;;;;;6.33;2.40;;;19.20;67.70;;;;;;5046378;28;20538;-53
2022/10/17 03:22:22;;;;;;;4.57;2.40;;;19.20;66.80;;;;;;5044506;28;20926;-55
2022/10/17 03:24:47;;;;;;;4.97;2.60;;;19.20;66.40;;;;;;5050768;28;20291;-52
2022/10/17 03:27:13;;;;;;;5.47;2.50;;;19.20;67.10;;;;;;5044869;28;20431;-55
2022/10/17 03:29:38;;;;;;;3.33;2.57;;;19.30;66.70;;;;;;5031264;28;20197;-54
2022/10/17 03:32:04;;;;;;;2.60;2.03;;;19.20;66.20;;;;;;5050011;28;20579;-53
2022/10/17 03:34:30;;;;;;;3.20;2.40;;;19.20;66.40;;;;;;5050897;28;20197;-55
2022/10/17 03:36:55;;;;;;;3.33;2.47;;;19.20;66.80;;;;;;5049488;28;20244;-54
2022/10/17 03:39:21;;;;;;;4.00;2.40;;;19.20;66.30;;;;;;5050563;28;20556;-54
2022/10/17 03:41:47;;;;;;;5.13;2.70;;;19.20;66.20;;;;;;5044648;28;20197;-53
2022/10/17 03:44:12;;;;;;;2.97;2.00;;;19.20;66.20;;;;;;5049510;28;20196;-54
2022/10/17 03:46:38;;;;;;;3.80;2.53;;;19.10;66.50;;;;;;5039990;28;20677;-54
2022/10/17 03:49:03;;;;;;;5.77;2.20;;;19.10;66.60;;;;;;5053193;28;20295;-55
2022/10/17 03:51:31;;;;;;;2.43;2.23;;;19.10;66.90;;;;;;5044981;28;20196;-53
2022/10/17 03:53:56;;;;;;;3.33;2.20;;;19.00;66.30;;;;;;5043469;28;20254;-54
2022/10/17 03:56:24;;;;;;;3.53;2.23;;;18.90;66.70;;;;;;5040495;28;20447;-55
2022/10/17 03:58:50;;;;;;;5.03;2.07;;;18.60;67.90;;;;;;5042914;28;20231;-53
2022/10/17 04:01:17;;;;;;;6.23;1.90;;;18.50;68.60;;;;;;5042790;28;20535;-53
2022/10/17 04:03:43;;;;;;;4.30;2.00;;;18.40;69.10;;;;;;5043188;28;20263;-54
2022/10/17 04:06:11;;;;;;;13.17;2.60;;;18.30;68.90;;;;;;5043260;28;20512;-54
2022/10/17 04:08:37;;;;;;;6.03;2.43;;;18.10;69.50;;;;;;5044945;28;20467;-53
2022/10/17 04:11:05;;;;;;;6.30;2.40;;;17.90;70.40;;;;;;5041762;28;20470;-53
2022/10/17 04:13:31;;;;;;;5.00;2.50;;;18.00;70.50;;;;;;5041013;28;20311;-54
2022/10/17 04:15:59;;;;;;;3.50;2.17;;;17.90;70.70;;;;;;5040735;28;20466;-51
2022/10/17 04:18:25;;;;;;;6.50;2.40;;;17.80;71.70;;;;;;5042285;28;20492;-53
2022/10/17 04:20:51;;;;;;;5.77;2.50;;;17.80;71.60;;;;;;5045582;28;20529;-54
2022/10/17 04:23:16;;;;;;;6.50;2.30;;;17.60;72.30;;;;;;5046113;28;20530;-51
2022/10/17 04:25:42;;;;;;;6.70;2.20;;;17.60;72.60;;;;;;5043992;28;20271;-51
2022/10/17 04:28:08;;;;;;;5.70;2.40;;;17.70;72.30;;;;;;5041202;28;20250;-54
2022/10/17 04:30:33;;;;;;;2.60;2.40;;;17.70;71.60;;;;;;5040440;28;20186;-51
2022/10/17 04:32:59;;;;;;;4.10;2.03;;;17.70;71.30;;;;;;5044094;28;20228;-54
2022/10/17 04:35:25;;;;;;;9.40;2.23;;;17.90;70.80;;;;;;5041089;28;20185;-53
2022/10/17 04:37:50;;;;;;;1.90;1.80;;;17.90;69.60;;;;;;5042980;28;20243;-54
2022/10/17 04:40:16;;;;;;;4.47;2.47;;;18.00;69.00;;;;;;5048118;28;20207;-52
2022/10/17 04:42:41;;;;;;;2.43;2.23;;;18.00;69.00;;;;;;5043561;28;20195;-51
2022/10/17 04:45:07;;;;;;;7.80;2.60;;;18.00;69.10;;;;;;5045608;28;20195;-51
2022/10/17 04:47:33;;;;;;;8.17;2.70;;;17.90;69.40;;;;;;5045624;28;20644;-51
2022/10/17 04:49:58;;;;;;;2.50;2.30;;;17.90;70.00;;;;;;5050058;28;20439;-52
2022/10/17 04:52:24;;;;;;;3.40;2.37;;;17.90;70.00;;;;;;5028467;28;20236;-51
2022/10/17 04:54:50;;;;;;;5.83;2.20;;;18.00;69.60;;;;;;5036121;28;20220;-53
2022/10/17 04:57:17;;;;;;;3.10;2.40;;;18.00;69.30;;;;;;5047501;28;20181;-52
2022/10/17 04:59:43;;;;;;;6.57;3.27;;;17.80;69.30;;;;;;5033111;28;20967;-54
2022/10/17 05:02:08;;;;;;;6.60;3.40;;;17.70;70.80;;;;;;5043644;28;20455;-53
2022/10/17 05:04:34;;;;;;;5.33;2.50;;;17.70;71.50;;;;;;5043351;28;20201;-57
2022/10/17 05:06:59;;;;;;;6.13;2.83;;;17.80;71.80;;;;;;5040496;28;20198;-55
2022/10/17 05:09:26;;;;;;;7.10;2.40;;;17.90;70.80;;;;;;5038885;28;20644;-52
2022/10/17 05:11:52;;;;;;;3.60;2.50;;;18.10;70.90;;;;;;5040014;28;20217;-54
2022/10/17 05:14:17;;;;;;;5.50;2.70;;;18.20;70.20;;;;;;5049660;28;20787;-54
2022/10/17 05:16:43;;;;;;;2.00;1.90;;;18.20;69.70;;;;;;5045720;28;20197;-53
2022/10/17 05:19:08;;;;;;;3.67;2.03;;;18.20;69.70;;;;;;5040089;28;20197;-53
2022/10/17 05:21:36;;;;;;;3.90;2.20;;;18.30;69.70;;;;;;5046160;28;20968;-55
2022/10/17 05:24:05;;;;;;;2.80;1.83;;;18.30;69.20;;;;;;5051561;28;20208;-52
2022/10/17 05:26:31;;;;;;;5.80;2.43;;;18.40;69.30;;;;;;5048814;28;20454;-55
2022/10/17 05:28:59;;;;;;;2.80;2.37;;;18.40;69.10;;;;;;5051573;28;20435;-55
2022/10/17 05:31:25;;;;;;;5.70;2.00;;;18.40;68.70;;;;;;5048737;28;20189;-55
2022/10/17 05:33:50;;;;;;;7.40;2.70;;;18.50;68.40;;;;;;5046353;28;20495;-54
2022/10/17 05:36:16;;;;;;;6.17;2.03;;;18.50;68.00;;;;;;5045413;28;20675;-55
2022/10/17 05:38:41;;;;;;;3.10;1.80;;;18.60;68.10;;;;;;5048185;28;20246;-55
2022/10/17 05:41:09;;;;;;;5.60;2.50;;;18.70;67.70;;;;;;5051928;28;20219;-54
2022/10/17 05:43:34;;;;;;;6.93;2.40;;;18.70;67.40;;;;;;5050441;28;20201;-55
2022/10/17 05:46:04;;;;;;;2.30;2.13;;;18.70;66.60;;;;;;5050217;28;20496;-53
2022/10/17 05:48:30;;;;;;;3.20;2.20;;;18.80;66.70;;;;;;5038534;28;20193;-54
2022/10/17 05:51:02;;;;;;;4.03;2.27;;;18.80;66.40;;;;;;5039746;28;20442;-56
2022/10/17 05:53:32;;;;;;;6.03;2.80;;;18.80;66.40;;;;;;5044992;28;20227;-54
2022/10/17 05:55:59;;;;;;;3.30;2.67;;;18.70;66.50;;;;;;5044260;28;21027;-55
2022/10/17 05:58:26;;;;;;;1.80;1.70;;;18.60;66.70;;;;;;5046978;28;20436;-54
2022/10/17 06:00:56;;;;;;;6.90;2.90;;;18.50;67.30;;;;;;5051988;28;20419;-55
2022/10/17 06:03:21;;;;;;;17.80;2.30;;;18.30;67.40;;;;;;5049962;28;20523;-55
2022/10/17 06:05:47;;;;;;;5.20;2.23;;;18.30;67.90;;;;;;5049413;28;20542;-55
2022/10/17 06:08:12;;;;;;;3.90;2.10;;;18.30;68.30;;;;;;5050516;28;20192;-54
2022/10/17 06:10:38;;;;;;;2.70;2.33;;;18.30;68.20;;;;;;5048659;28;20208;-55
2022/10/17 06:13:04;;;;;;;6.20;2.83;;;18.40;67.90;;;;;;5049814;28;20224;-55
2022/10/17 06:15:29;;;;;;;4.60;2.10;;;18.50;67.60;;;;;;5040592;28;20188;-55
2022/10/17 06:17:55;;;;;;;2.87;2.53;;;18.50;67.30;;;;;;5045805;28;20560;-55
2022/10/17 06:20:20;;;;;;;3.47;3.13;;;18.40;67.40;;;;;;5044279;28;20200;-54
2022/10/17 06:22:46;;;;;;;4.57;2.73;;;18.40;68.30;;;;;;5046670;28;20193;-54
2022/10/17 06:25:11;;;;;;;6.37;2.50;;;18.40;68.20;;;;;;5045727;28;20196;-54
2022/10/17 06:27:37;;;;;;;3.57;2.33;;;18.40;68.60;;;;;;5038118;28;20275;-55
2022/10/17 06:30:03;;;;;;;2.87;2.67;;;18.30;68.40;;;;;;5045779;28;20215;-54
2022/10/17 06:32:29;;;;;;;2.80;2.60;;;18.40;68.90;;;;;;5029471;28;20224;-54
2022/10/17 06:34:54;;;;;;;3.33;2.17;;;18.50;68.60;;;;;;5031238;28;20483;-53
2022/10/17 06:37:20;;;;;;;2.60;2.40;;;18.50;68.30;;;;;;5030503;28;20236;-55
2022/10/17 06:39:45;;;;;;;5.23;2.60;;;18.30;69.00;;;;;;5045866;28;20652;-54
2022/10/17 06:42:11;;;;;;;2.87;2.20;;;18.30;69.50;;;;;;5038617;28;20193;-52
2022/10/17 06:44:38;;;;;;;2.97;1.97;;;18.30;69.80;;;;;;5031417;28;20284;-55
2022/10/17 06:47:04;;;;;;;9.03;2.43;;;18.30;69.60;;;;;;5030439;28;20593;-54
2022/10/17 06:49:31;;;;;;;4.30;2.30;;;18.30;69.70;;;;;;5031173;28;20436;-54
2022/10/17 06:51:56;;;;;;;2.43;2.30;;;18.30;70.00;;;;;;5040018;28;20250;-54
2022/10/17 06:54:22;;;;;;;4.20;2.40;;;18.20;70.50;;;;;;5051132;28;20430;-56
2022/10/17 06:56:47;;;;;;;3.63;2.77;;;18.20;70.50;;;;;;5050373;28;20201;-54
2022/10/17 06:59:14;;;;;;;2.87;2.67;;;18.20;70.70;;;;;;5049644;28;20686;-55
2022/10/17 07:01:40;;;;;;;10.57;2.10;;;18.40;70.10;;;;;;5049452;28;20189;-55
2022/10/17 07:04:05;;;;;;;4.33;2.20;;;18.60;70.10;;;;;;5035506;28;20431;-52
2022/10/17 07:06:31;;;;;;;3.37;2.50;;;18.50;69.30;;;;;;5034276;28;20197;-55
2022/10/17 07:08:57;;;;;;;2.30;2.10;;;18.60;69.90;;;;;;5038834;28;20561;-55
2022/10/17 07:11:22;;;;;;;4.17;2.60;;;18.70;68.80;;;;;;5048711;28;20546;-55
2022/10/17 07:13:49;;;;;;;3.07;2.70;;;18.80;68.60;;;;;;5047268;28;20702;-55
2022/10/17 07:16:15;;;;;;;4.97;2.07;;;18.90;67.90;;;;;;5038771;28;20188;-54
2022/10/17 07:18:42;;;;;;;7.47;3.90;;;19.00;68.70;;;;;;5050996;28;20450;-52
2022/10/17 07:21:08;;;;;;;2.77;2.20;;;19.00;68.00;;;;;;5054155;28;20454;-53
2022/10/17 07:23:35;;;;;;;6.17;3.20;;;19.00;68.00;;;;;;5050279;28;20447;-54
2022/10/17 07:26:06;;;;;;;11.53;3.13;;;19.20;67.90;;;;;;5044314;28;20443;-54
2022/10/17 07:28:33;;;;;;;6.27;3.03;;;19.40;67.70;;;;;;5040654;28;20461;-54
2022/10/17 07:31:07;;;;;;;5.43;2.27;;;19.50;67.60;;;;;;5044596;28;20466;-54
2022/10/17 07:33:33;;;;;;;2.60;2.10;;;19.60;67.30;;;;;;5048296;28;20490;-54
2022/10/17 07:35:59;;;;;;;9.80;2.77;;;19.80;66.30;;;;;;5047436;28;21556;-53
2022/10/17 07:38:26;;;;;;;4.73;2.80;;;19.90;65.80;;;;;;5052558;28;20557;-54
2022/10/17 07:41:00;;;;;;;5.60;2.17;;;20.10;65.90;;;;;;5051479;28;20439;-55
2022/10/17 07:43:26;;;;;;;2.43;1.97;;;20.20;65.60;;;;;;5047824;28;20431;-54
2022/10/17 07:45:52;;;;;;;7.10;2.67;;;20.30;65.30;;;;;;5050818;28;20467;-53
2022/10/17 07:48:18;;;;;;;6.73;2.60;;;20.50;64.00;;;;;;5047657;28;20512;-54
2022/10/17 07:50:44;;;;;;;3.20;2.27;;;20.50;63.70;;;;;;5045421;28;20199;-52
2022/10/17 07:53:10;;;;;;;4.97;2.00;;;20.20;64.60;;;;;;5044322;28;20482;-53
2022/10/17 07:55:40;;;;;;;3.80;2.30;;;20.00;64.70;;;;;;5050930;28;20188;-54
2022/10/17 07:58:07;;;;;;;3.30;2.17;;;19.90;65.80;;;;;;5042016;28;20196;-54
2022/10/17 08:00:33;;;;;;;6.80;2.10;;;20.10;65.70;;;;;;5047461;28;20489;-55
2022/10/17 08:02:59;;;;;;;5.30;2.17;;;20.20;64.80;;;;;;5048291;28;20488;-54
2022/10/17 08:05:25;;;;;;;2.17;1.97;;;20.50;65.00;;;;;;5050265;28;21181;-54
2022/10/17 08:07:50;;;;;;;4.30;2.20;;;20.50;64.40;;;;;;5048837;28;20192;-55
2022/10/17 08:10:16;;;;;;;2.63;2.40;;;20.90;64.20;;;;;;5043824;28;20200;-54
2022/10/17 08:12:42;;;;;;;4.63;3.30;;;21.30;63.00;;;;;;5050137;28;20231;-54
2022/10/17 08:15:08;;;;;;;4.67;2.23;;;21.40;61.70;;;;;;5045178;28;20443;-55
2022/10/17 08:17:35;;;;;;;5.43;2.37;;;21.30;60.70;;;;;;5046171;28;20204;-55
2022/10/17 08:20:01;;;;;;;3.27;2.50;;;21.30;61.30;;;;;;5044059;28;20485;-55
2022/10/17 08:22:27;;;;;;;7.30;2.80;;;21.40;61.30;;;;;;5044499;28;20451;-55
2022/10/17 08:24:52;;;;;;;3.70;2.30;;;21.50;61.40;;;;;;5040632;28;20436;-55
2022/10/17 08:27:23;;;;;;;5.67;2.20;;;21.40;61.60;;;;;;5039603;28;20242;-54
2022/10/17 08:29:51;;;;;;;3.03;2.37;;;21.60;61.70;;;;;;5049892;28;20196;-54
2022/10/17 08:32:22;;;;;;;2.30;2.20;;;21.90;60.30;;;;;;5047085;28;20525;-54
2022/10/17 08:34:47;;;;;;;6.13;2.50;;;22.00;59.60;;;;;;5042883;28;20427;-53
2022/10/17 08:37:14;;;;;;;7.43;2.07;;;22.20;59.10;;;;;;5048791;28;20504;-54
2022/10/17 08:39:40;;;;;;;2.87;2.63;;;22.50;59.30;;;;;;5047993;28;20188;-54
2022/10/17 08:42:29;;;;;;;5.10;2.17;;;22.70;58.70;;;;;;5043331;28;20685;-54
2022/10/17 08:45:04;;;;;;;3.30;2.10;;;22.80;58.20;;;;;;5044131;28;20903;-55
2022/10/17 08:47:40;;;;;;;3.43;2.60;;;22.90;57.50;;;;;;5047507;28;20458;-54
2022/10/17 08:50:17;;;;;;;9.80;3.30;;;23.10;57.30;;;;;;5043202;28;20573;-56
2022/10/17 08:52:52;;;;;;;8.90;3.10;;;23.10;56.70;;;;;;5049683;28;20887;-54
2022/10/17 08:55:37;;;;;;;4.70;2.80;;;22.90;57.10;;;;;;5049988;28;20809;-54
2022/10/17 08:58:21;;;;;;;3.00;2.70;;;22.80;57.70;;;;;;5048771;28;20458;-54
2022/10/17 09:01:09;;;;;;;2.73;2.23;;;22.80;57.80;;;;;;5049610;28;20530;-55
2022/10/17 09:03:43;;;;;;;2.33;2.13;;;23.10;57.50;;;;;;5044261;28;20812;-55
2022/10/17 09:06:19;;;;;;;2.80;2.60;;;23.30;57.20;;;;;;5048944;28;20500;-55
2022/10/17 09:09:03;;;;;;;2.53;2.30;;;23.60;56.60;;;;;;5046188;28;20454;-55
2022/10/17 09:11:53;;;;;;;3.30;3.00;;;23.80;57.10;;;;;;5036533;28;20448;-55
2022/10/17 09:14:37;;;;;;;5.30;2.50;;;24.10;56.00;;;;;;5036715;28;20526;-55
2022/10/17 09:17:28;;;;;;;2.00;1.73;;;24.40;55.30;;;;;;5047775;28;20493;-55
2022/10/17 09:20:04;;;;;;;4.57;2.50;;;24.70;55.00;;;;;;5040124;28;20958;-57
2022/10/17 09:22:40;;;;;;;5.30;2.10;;;24.70;55.10;;;;;;5047611;28;20450;-56
2022/10/17 09:25:11;;;;;;;2.70;2.40;;;24.90;54.50;;;;;;5044903;28;20804;-55
2022/10/17 09:27:47;;;;;;;7.43;2.70;;;25.00;54.50;;;;;;5037932;28;20423;-56
2022/10/17 09:30:35;;;;;;;2.20;2.00;;;25.30;53.00;;;;;;5041641;28;21148;-55
2022/10/17 09:33:08;;;;;;;3.57;2.73;;;25.00;53.30;;;;;;5047874;28;20495;-53
2022/10/17 09:35:34;;;;;;;3.83;2.07;;;25.10;53.40;;;;;;5051246;28;20445;-57
2022/10/17 09:38:00;;;;;;;8.70;2.13;;;24.90;53.30;;;;;;5048956;28;20524;-55
2022/10/17 09:40:31;;;;;;;2.63;2.37;;;25.00;53.50;;;;;;5049034;28;20439;-54
2022/10/17 09:43:01;;;;;;;2.43;2.23;;;25.00;53.60;;;;;;5044859;28;20734;-55
2022/10/17 09:45:30;;;;;;;2.30;2.10;;;25.00;53.80;;;;;;5050157;28;20953;-57
2022/10/17 09:48:21;;;;;;;3.67;2.20;;;25.00;53.50;;;;;;5050243;28;20989;-55
2022/10/17 09:50:47;;;;;;;6.93;2.33;;;25.00;54.10;;;;;;5049401;28;20443;-54
2022/10/17 09:53:19;;;;;;;3.43;2.17;;;25.20;53.60;;;;;;5046878;28;20556;-56
2022/10/17 09:55:51;;;;;;;3.47;2.13;;;25.30;53.20;;;;;;5051189;28;20237;-55
2022/10/17 09:58:20;;;;;;;8.00;2.17;;;25.40;52.70;;;;;;5048839;28;20442;-56
2022/10/17 10:00:47;;;;;;;2.47;2.10;;;25.60;53.40;;;;;;5042695;28;20474;-55
2022/10/17 10:03:15;;;;;;;2.63;2.00;;;25.60;52.10;;;;;;5046996;28;20454;-56
2022/10/17 10:05:42;;;;;;;2.33;1.90;;;25.80;52.10;;;;;;5042523;28;20455;-57
2022/10/17 10:08:18;;;;;;;5.40;2.10;;;26.10;51.80;;;;;;5044940;28;20466;-56
2022/10/17 10:10:44;;;;;;;3.00;2.27;;;26.20;51.50;;;;;;5049820;28;20466;-55
2022/10/17 10:13:13;;;;;;;4.00;2.20;;;26.40;50.70;;;;;;5047174;28;20489;-58
2022/10/17 10:15:49;;;;;;;3.47;2.50;;;26.30;50.70;;;;;;5049266;28;20952;-55
2022/10/17 10:18:24;;;;;;;4.40;2.17;;;26.40;50.00;;;;;;5030082;28;20480;-55
2022/10/17 10:21:06;;;;;;;5.83;2.40;;;26.50;50.50;;;;;;5038523;28;20456;-56
2022/10/17 10:23:32;;;;;;;2.57;2.07;;;26.60;50.30;;;;;;5043599;28;21440;-58
2022/10/17 10:26:02;;;;;;;5.30;2.13;;;26.50;49.90;;;;;;5048012;28;20435;-60
2022/10/17 10:28:30;;;;;;;2.43;1.97;;;26.80;49.60;;;;;;5049012;28;20443;-56
2022/10/17 10:30:58;;;;;;;4.50;2.07;;;26.80;49.60;;;;;;5047566;28;20522;-56
2022/10/17 10:33:28;;;;;;;4.03;2.00;;;26.80;49.90;;;;;;5023662;28;20932;-56
2022/10/17 10:36:03;;;;;;;3.43;2.10;;;27.10;49.50;;;;;;5036891;28;20522;-56
2022/10/17 10:38:31;;;;;;;3.20;1.90;;;27.30;48.80;;;;;;5042105;28;20470;-56
2022/10/17 10:41:06;;;;;;;3.83;1.80;;;27.60;46.70;;;;;;5042091;28;20439;-54
2022/10/17 10:43:32;;;;;;;4.13;1.90;;;27.70;46.70;;;;;;5040601;28;20537;-55
2022/10/17 10:45:58;;;;;;;5.73;2.13;;;28.00;46.70;;;;;;5041486;28;20969;-57
2022/10/17 10:48:29;;;;;;;4.50;2.73;;;28.20;45.10;;;;;;5048765;28;21444;-55
2022/10/17 10:51:06;;;;;;;5.63;2.93;;;28.20;44.60;;;;;;5048147;28;20443;-56
2022/10/17 10:53:41;;;;;;;3.00;2.20;;;28.30;45.70;;;;;;5045603;28;20486;-56
2022/10/17 10:56:28;;;;;;;3.57;2.30;;;28.10;44.70;;;;;;5045996;28;20446;-56
2022/10/17 10:59:09;;;;;;;7.93;2.60;;;28.10;45.00;;;;;;5046182;28;22036;-55
2022/10/17 11:01:56;;;;;;;6.50;2.83;;;28.20;46.30;;;;;;5043832;28;20446;-56
2022/10/17 11:04:48;;;;;;;5.43;2.30;;;28.50;46.70;;;;;;5049812;28;20957;-56
2022/10/17 11:07:28;;;;;;;4.10;1.93;;;28.70;45.60;;;;;;5049419;28;20462;-56
2022/10/17 11:09:53;;;;;;;4.30;2.30;;;28.80;44.00;;;;;;5038130;28;20943;-55
2022/10/17 11:12:34;;;;;;;4.60;2.63;;;28.90;44.50;;;;;;5046356;28;20540;-56
2022/10/17 11:15:18;;;;;;;5.33;2.03;;;29.00;45.50;;;;;;5044158;28;20207;-56
2022/10/17 11:17:56;;;;;;;3.27;1.80;;;29.10;44.40;;;;;;5038440;28;20823;-56
2022/10/17 11:20:41;;;;;;;3.13;2.23;;;29.20;44.00;;;;;;5048399;28;20461;-57
2022/10/17 11:23:18;;;;;;;9.40;2.23;;;29.30;43.10;;;;;;5047987;28;20447;-55
2022/10/17 11:25:47;;;;;;;2.23;1.70;;;29.50;43.40;;;;;;5046082;28;20512;-57
2022/10/17 11:28:21;;;;;;;2.80;2.20;;;29.60;42.30;;;;;;5047122;28;21331;-57
2022/10/17 11:30:54;;;;;;;5.53;2.50;;;29.70;42.40;;;;;;5048310;28;20474;-56
2022/10/17 11:33:38;;;;;;;2.73;2.40;;;29.70;42.80;;;;;;5044505;28;21044;-57
2022/10/17 11:36:07;;;;;;;5.13;2.60;;;29.70;42.30;;;;;;5044992;28;20930;-56
2022/10/17 11:38:56;;;;;;;5.63;2.10;;;29.80;42.50;;;;;;5044518;28;20988;-57
2022/10/17 11:41:33;;;;;;;2.27;2.07;;;29.80;42.10;;;;;;5009195;28;20451;-57
2022/10/17 11:44:19;;;;;;;4.57;2.80;;;29.70;42.40;;;;;;5040297;28;20834;-57
2022/10/17 11:46:47;;;;;;;2.73;2.30;;;29.90;43.10;;;;;;5046535;28;20414;-56
2022/10/17 11:49:22;;;;;;;2.70;2.00;;;30.10;41.50;;;;;;5046447;28;21180;-58
2022/10/17 11:51:49;;;;;;;9.07;2.60;;;30.20;41.20;;;;;;5048511;28;20562;-58
2022/10/17 11:54:15;;;;;;;11.87;2.20;;;30.30;41.40;;;;;;5045122;28;20443;-58
2022/10/17 11:57:03;;;;;;;4.90;2.27;;;30.40;41.70;;;;;;5045102;28;20462;-58
2022/10/17 11:59:55;;;;;;;2.67;2.03;;;30.50;40.80;;;;;;5030409;28;20203;-58
2022/10/17 12:02:51;;;;;;;3.00;2.03;;;30.60;39.80;;;;;;5031573;28;20827;-58
2022/10/17 12:05:40;;;;;;;3.03;1.80;;;30.70;40.90;;;;;;5049516;28;20459;-58
2022/10/17 12:08:12;;;;;;;2.77;2.20;;;30.70;40.00;;;;;;5053001;28;20431;-58
2022/10/17 12:10:49;;;;;;;2.57;2.37;;;30.90;39.60;;;;;;5045732;28;20455;-58
2022/10/17 12:13:47;;;;;;;5.10;2.00;;;31.10;39.60;;;;;;5045082;28;20494;-58
2022/10/17 12:16:18;;;;;;;5.40;2.17;;;31.30;38.90;;;;;;5041848;28;20479;-58
2022/10/17 12:19:08;;;;;;;7.60;2.00;;;31.30;38.80;;;;;;5049497;28;20482;-57
2022/10/17 12:22:17;;;;;;;6.57;1.83;;;31.30;39.40;;;;;;5047630;28;21336;-58
2022/10/17 12:24:58;;;;;;;3.37;2.10;;;31.40;39.50;;;;;;5051615;28;20466;-57
2022/10/17 12:27:42;;;;;;;4.10;2.00;;;31.50;39.90;;;;;;5046785;28;20447;-57
2022/10/17 12:30:10;;;;;;;2.97;2.20;;;31.60;37.90;;;;;;5039903;28;20439;-58
2022/10/17 12:32:37;;;;;;;2.40;1.80;;;31.60;37.20;;;;;;5047611;28;20561;-57
2022/10/17 12:35:03;;;;;;;2.53;1.97;;;31.50;37.10;;;;;;5048920;28;20492;-57
2022/10/17 12:37:44;;;;;;;4.60;2.20;;;31.50;37.30;;;;;;5050269;28;21022;-57
2022/10/17 12:40:49;;;;;;;3.67;1.90;;;31.60;37.10;;;;;;5050086;28;20439;-58
2022/10/17 12:43:15;;;;;;;2.23;2.03;;;31.60;36.50;;;;;;4969359;28;20981;-57
2022/10/17 12:45:56;;;;;;;3.07;1.83;;;31.50;36.30;;;;;;5030676;28;20451;-58
2022/10/17 12:48:36;;;;;;;5.00;1.83;;;31.60;36.50;;;;;;5051747;28;20694;-59
2022/10/17 12:51:17;;;;;;;3.50;1.90;;;31.50;35.50;;;;;;5050451;28;20478;-58
2022/10/17 12:53:48;;;;;;;3.60;2.00;;;31.30;35.30;;;;;;5049521;28;20556;-58
2022/10/17 12:56:21;;;;;;;2.63;1.77;;;31.30;35.70;;;;;;5048617;28;20492;-57
2022/10/17 12:58:50;;;;;;;2.30;1.87;;;31.30;35.10;;;;;;5050275;28;20488;-57
2022/10/17 13:01:30;;;;;;;4.97;2.03;;;31.30;35.40;;;;;;5039759;28;20821;-57
2022/10/17 13:04:01;;;;;;;6.80;2.30;;;31.40;36.10;;;;;;5042253;28;20454;-58
2022/10/17 13:06:31;;;;;;;4.57;2.47;;;31.50;36.30;;;;;;5045380;28;20530;-58